Hauptseite
METAR-TAF:

METAR-TAF

Flughäfen :

Blagoweschtschensk, Russland

Breite: 50-25-30N, Länge: 127-24-48E, Höhe: 195 m

Beobachtung

Neuester Wetterbericht von vor 41 Minuten, um 05:00 UTC
Wind 14 kt aus Nord/Nordwest
Temperatur -9°C
Luftfeuchtigkeit 57%
Luftdruck 1028 hPa
Sichtweite 10 km oder mehr
Aufgelockert bewölkt in der Höhe von 3300 ft

METAR: UHBB 280500Z 34007MPS 9999 SCT033 M09/M16 Q1028 R36R/090067 NOSIG RMK QFE753/1005

Zeit: 14:41 (05:41 UTC)

Prognose

Neuester Wetterbericht von vor 1 Stunde und 7 Minuten, um 04:34 UTC
Gültige Prognose vom 28 um 06 UTC bis 29 um 06 UTC
Wind 6 kt aus Nord, Böen bis zu 16 kt
Sichtweite 10 km oder mehr
Aufgelockert bewölkt in der Höhe von 3000 ft

TAF: UHBB 280434Z 2806/2906 35003G08MPS 9999 SCT030

Wetterbeobachtungen und Prognosen von mehr als 4000 Flughäfen (METAR und TAF Bericht).

Die verfügbaren Stationen werden durch gelbe und rote Markierungen auf der Karte dargestellt.

Führen Sie die Maus auf sie, um den Namen der Station zu sehen.

Darauf klicken, um die Beobachtung von Wetterbeobachtungen und Prognosen zu sehen.

Um die Karte zu ändern : klicken Sie auf den grünen Tasten mit einem schwarzen Kreuz Zum Vergrößern, auf den grünen Button mit einem Gedankenstrich zu verkleinern, oder auf die grünen Pfeile für benachbarte Karten.


METAR-TAF: